createdAt,value
2022-08-29T00:00:17.745Z,12.0
2022-08-29T00:01:16.560Z,12.0
2022-08-29T00:02:17.185Z,12.1
2022-08-29T00:03:18.410Z,12.0
2022-08-29T00:04:19.116Z,12.0
2022-08-29T00:05:19.717Z,12.0
2022-08-29T00:06:21.323Z,12.0
2022-08-29T00:07:21.900Z,12.1
2022-08-29T00:08:22.497Z,12.1
2022-08-29T00:09:23.094Z,11.9
2022-08-29T00:10:23.687Z,12.0
2022-08-29T00:11:24.281Z,12.0
2022-08-29T00:12:24.877Z,12.0
2022-08-29T00:13:25.473Z,12.1
2022-08-29T00:14:26.067Z,12.2
2022-08-29T00:15:26.661Z,12.2
2022-08-29T00:16:27.314Z,12.3
2022-08-29T00:17:27.867Z,12.3
2022-08-29T00:18:28.462Z,12.3
2022-08-29T00:19:29.055Z,12.3
2022-08-29T00:20:34.319Z,12.3
2022-08-29T00:21:31.258Z,12.2
2022-08-29T00:22:31.837Z,12.2
2022-08-29T00:23:32.432Z,12.1
2022-08-29T00:24:33.027Z,12.1
2022-08-29T00:25:33.621Z,12.0
2022-08-29T00:26:34.235Z,11.9
2022-08-29T00:27:34.830Z,11.9
2022-08-29T00:28:35.426Z,12.0
2022-08-29T00:29:36.022Z,11.8
2022-08-29T00:30:36.615Z,11.8
2022-08-29T00:31:37.249Z,11.9
2022-08-29T00:32:37.828Z,11.9
2022-08-29T00:33:39.208Z,11.9
2022-08-29T00:34:39.963Z,11.8
2022-08-29T00:35:40.667Z,11.9
2022-08-29T00:36:41.186Z,12.0
2022-08-29T00:37:42.775Z,12.0
2022-08-29T00:38:43.393Z,12.0
2022-08-29T00:39:43.967Z,12.0
2022-08-29T00:40:47.131Z,11.9
2022-08-29T00:41:46.149Z,11.9
2022-08-29T00:42:46.745Z,11.9
2022-08-29T00:43:47.339Z,11.8
2022-08-29T00:44:47.937Z,11.8
2022-08-29T00:45:48.576Z,11.8
2022-08-29T00:46:49.130Z,11.8
2022-08-29T00:47:49.724Z,11.6
2022-08-29T00:48:50.320Z,11.6
2022-08-29T00:49:51.908Z,11.6
2022-08-29T00:50:52.503Z,11.7
2022-08-29T00:51:53.099Z,11.5
2022-08-29T00:52:53.697Z,11.6
2022-08-29T00:53:54.288Z,11.5
2022-08-29T00:54:54.885Z,11.5
2022-08-29T00:55:55.481Z,11.4
2022-08-29T00:56:56.077Z,11.4
2022-08-29T00:57:56.673Z,11.4
2022-08-29T00:58:57.268Z,11.4
2022-08-29T00:59:57.862Z,11.4
2022-08-29T01:00:58.559Z,11.4
2022-08-29T01:01:59.174Z,11.4
2022-08-29T01:02:59.755Z,11.4
2022-08-29T01:04:00.352Z,11.3
2022-08-29T01:05:00.947Z,11.4
2022-08-29T01:06:01.542Z,11.3
2022-08-29T01:07:02.137Z,11.4
2022-08-29T01:08:02.732Z,11.4
2022-08-29T01:09:03.327Z,11.3
2022-08-29T01:10:03.922Z,11.4
2022-08-29T01:11:05.511Z,11.4
2022-08-29T01:12:06.106Z,11.4
2022-08-29T01:13:06.703Z,11.3
2022-08-29T01:14:07.299Z,11.4
2022-08-29T01:15:07.893Z,11.4
2022-08-29T01:16:08.600Z,11.4
2022-08-29T01:17:09.159Z,11.4
2022-08-29T01:18:09.752Z,11.4
2022-08-29T01:19:10.346Z,11.4
2022-08-29T01:20:10.941Z,11.4
2022-08-29T01:21:11.536Z,11.5
2022-08-29T01:22:12.132Z,11.4
2022-08-29T01:23:12.730Z,11.4
2022-08-29T01:24:13.325Z,11.4
2022-08-29T01:25:13.921Z,11.4
2022-08-29T01:26:14.513Z,11.4
2022-08-29T01:27:15.111Z,11.5
2022-08-29T01:28:15.838Z,11.4
2022-08-29T01:29:16.421Z,11.4
2022-08-29T01:30:17.018Z,11.4
2022-08-29T01:31:42.216Z,11.4
2022-08-29T01:32:19.311Z,11.4
2022-08-29T01:33:19.852Z,11.4
2022-08-29T01:34:20.448Z,11.4
2022-08-29T01:35:21.055Z,11.4
2022-08-29T01:36:21.649Z,11.4
2022-08-29T01:37:22.244Z,11.4
2022-08-29T01:38:22.840Z,11.4
2022-08-29T01:39:23.435Z,11.4
2022-08-29T01:40:24.129Z,11.4
2022-08-29T01:41:24.682Z,11.4
2022-08-29T01:42:25.275Z,11.3
2022-08-29T01:43:25.872Z,11.5
2022-08-29T01:44:26.465Z,11.3
2022-08-29T01:45:27.139Z,11.4
2022-08-29T01:46:27.731Z,11.4
2022-08-29T01:47:28.334Z,11.4
2022-08-29T01:48:28.924Z,11.4
2022-08-29T01:49:29.524Z,11.4
2022-08-29T01:50:30.110Z,11.4
2022-08-29T01:51:30.707Z,11.4
2022-08-29T01:52:31.301Z,11.4
2022-08-29T01:53:31.894Z,11.4
2022-08-29T01:54:32.492Z,11.4
2022-08-29T01:55:33.084Z,11.4
2022-08-29T01:56:33.678Z,11.4
2022-08-29T01:57:34.273Z,11.4
2022-08-29T01:58:34.868Z,11.4
2022-08-29T01:59:35.465Z,11.4
2022-08-29T02:00:36.151Z,11.4
2022-08-29T02:01:36.774Z,11.4
2022-08-29T02:02:37.388Z,11.4
2022-08-29T02:03:38.923Z,11.4
2022-08-29T02:04:39.517Z,11.4
2022-08-29T02:05:40.130Z,11.4
2022-08-29T02:06:40.707Z,11.4
2022-08-29T02:07:41.301Z,11.3
2022-08-29T02:08:41.894Z,11.4
2022-08-29T02:09:45.655Z,11.2
2022-08-29T02:10:44.078Z,11.3
2022-08-29T02:11:44.693Z,11.2
2022-08-29T02:12:45.309Z,11.2
2022-08-29T02:13:45.904Z,11.2
2022-08-29T02:14:46.498Z,11.2
2022-08-29T02:15:47.094Z,11.2
2022-08-29T02:16:47.801Z,11.2
2022-08-29T02:17:48.555Z,11.1
2022-08-29T02:18:49.162Z,11.2
2022-08-29T02:19:49.757Z,11.2
2022-08-29T02:20:51.140Z,11.2
2022-08-29T02:21:51.755Z,11.1
2022-08-29T02:22:52.350Z,11.2
2022-08-29T02:23:52.947Z,11.4
2022-08-29T02:24:53.542Z,11.3
2022-08-29T02:25:54.140Z,11.2
2022-08-29T02:26:54.739Z,11.3
2022-08-29T02:27:55.328Z,11.3
2022-08-29T02:28:55.924Z,11.2
2022-08-29T02:29:56.521Z,11.2
2022-08-29T02:30:57.122Z,11.3
2022-08-29T02:31:57.712Z,11.3
2022-08-29T02:32:58.305Z,11.2
2022-08-29T02:33:59.720Z,11.2
2022-08-29T02:35:00.499Z,11.2
2022-08-29T02:36:01.266Z,11.2
2022-08-29T02:37:01.809Z,11.2
2022-08-29T02:38:02.407Z,11.2
2022-08-29T02:39:03.004Z,11.3
2022-08-29T02:40:03.632Z,11.2
2022-08-29T02:41:04.192Z,11.3
2022-08-29T02:42:04.792Z,11.3
2022-08-29T02:43:05.383Z,11.3
2022-08-29T02:44:05.981Z,11.4
2022-08-29T02:45:06.572Z,11.3
2022-08-29T02:46:07.170Z,11.3
2022-08-29T02:47:07.844Z,11.3
2022-08-29T02:48:08.443Z,11.3
2022-08-29T02:49:09.032Z,11.2
2022-08-29T02:50:09.630Z,11.3
2022-08-29T02:51:11.198Z,11.2
2022-08-29T02:52:11.795Z,11.3
2022-08-29T02:53:12.391Z,11.3
2022-08-29T02:54:12.987Z,11.2
2022-08-29T02:55:13.580Z,11.3
2022-08-29T02:56:14.400Z,11.1
2022-08-29T02:57:14.999Z,11.2
2022-08-29T02:58:15.813Z,11.2
2022-08-29T02:59:16.428Z,11.2
2022-08-29T03:00:17.030Z,11.2
2022-08-29T03:01:17.652Z,11.2
2022-08-29T03:02:18.272Z,11.1
2022-08-29T03:03:18.833Z,11.2
2022-08-29T03:04:19.429Z,11.1
2022-08-29T03:05:20.690Z,11.1
2022-08-29T03:06:21.284Z,11.1
2022-08-29T03:07:21.881Z,11.1
2022-08-29T03:08:22.477Z,10.9
2022-08-29T03:09:23.069Z,11.0
2022-08-29T03:10:23.665Z,11.0
2022-08-29T03:11:24.260Z,11.0
2022-08-29T03:12:24.855Z,11.0
2022-08-29T03:13:26.444Z,11.0
2022-08-29T03:14:27.041Z,11.0
2022-08-29T03:15:27.636Z,10.9
2022-08-29T03:16:28.251Z,11.0
2022-08-29T03:17:28.828Z,11.0
2022-08-29T03:18:29.426Z,11.0
2022-08-29T03:19:30.023Z,11.0
2022-08-29T03:20:30.616Z,10.9
2022-08-29T03:21:31.211Z,11.0
2022-08-29T03:22:31.804Z,10.9
2022-08-29T03:23:32.420Z,10.9
2022-08-29T03:24:33.012Z,11.0
2022-08-29T03:25:33.607Z,10.9
2022-08-29T03:26:34.201Z,11.0
2022-08-29T03:27:34.796Z,10.9
2022-08-29T03:28:35.390Z,11.0
2022-08-29T03:29:35.985Z,11.0
2022-08-29T03:30:36.578Z,10.9
2022-08-29T03:31:37.258Z,11.0
2022-08-29T03:32:37.873Z,11.0
2022-08-29T03:33:38.469Z,10.9
2022-08-29T03:34:39.064Z,11.0
2022-08-29T03:35:39.661Z,10.9
2022-08-29T03:36:40.256Z,11.0
2022-08-29T03:37:40.852Z,11.0
2022-08-29T03:38:41.447Z,11.0
2022-08-29T03:39:42.043Z,11.0
2022-08-29T03:40:42.727Z,10.9
2022-08-29T03:41:43.284Z,11.0
2022-08-29T03:42:43.884Z,11.1
2022-08-29T03:43:44.476Z,11.2
2022-08-29T03:44:45.071Z,11.1
2022-08-29T03:45:45.669Z,11.2
2022-08-29T03:46:46.315Z,11.2
2022-08-29T03:47:47.393Z,11.2
2022-08-29T03:48:47.987Z,11.2
2022-08-29T03:49:48.584Z,11.1
2022-08-29T03:50:52.176Z,11.2
2022-08-29T03:51:49.791Z,11.3
2022-08-29T03:52:50.384Z,11.2
2022-08-29T03:53:50.981Z,11.2
2022-08-29T03:54:51.575Z,11.2
2022-08-29T03:55:52.174Z,11.3
2022-08-29T03:56:52.937Z,11.2
2022-08-29T03:57:53.533Z,11.2
2022-08-29T03:58:54.133Z,11.3
2022-08-29T03:59:54.724Z,11.2
2022-08-29T04:00:55.318Z,11.4
2022-08-29T04:01:56.017Z,11.3
2022-08-29T04:02:56.568Z,11.3
2022-08-29T04:03:57.155Z,11.4
2022-08-29T04:04:57.751Z,11.2
2022-08-29T04:05:58.348Z,11.3
2022-08-29T04:06:58.943Z,11.3
2022-08-29T04:07:59.538Z,11.3
2022-08-29T04:09:00.135Z,11.3
2022-08-29T04:10:00.728Z,11.4
2022-08-29T04:11:01.324Z,11.4
2022-08-29T04:12:01.918Z,11.4
2022-08-29T04:13:02.514Z,11.4
2022-08-29T04:14:03.113Z,11.4
2022-08-29T04:15:03.858Z,11.4
2022-08-29T04:16:04.508Z,11.5
2022-08-29T04:17:05.081Z,11.4
2022-08-29T04:18:06.916Z,11.5
2022-08-29T04:19:08.881Z,11.5
2022-08-29T04:20:08.859Z,11.5
2022-08-29T04:21:09.475Z,11.6
2022-08-29T04:22:10.074Z,11.6
2022-08-29T04:23:10.670Z,11.6
2022-08-29T04:24:11.269Z,11.6
2022-08-29T04:25:11.866Z,11.8
2022-08-29T04:26:31.655Z,11.7
2022-08-29T04:27:14.058Z,11.8
2022-08-29T04:28:15.790Z,11.8
2022-08-29T04:29:16.383Z,11.8
2022-08-29T04:30:16.984Z,11.8
2022-08-29T04:31:17.616Z,11.9
2022-08-29T04:32:18.199Z,11.8
2022-08-29T04:33:22.788Z,11.8
2022-08-29T04:34:20.390Z,11.9
2022-08-29T04:35:20.988Z,11.9
2022-08-29T04:36:21.586Z,12.0
2022-08-29T04:37:22.199Z,12.0
2022-08-29T04:38:22.781Z,12.0
2022-08-29T04:39:23.381Z,12.0
2022-08-29T04:40:24.058Z,11.9
2022-08-29T04:41:24.656Z,12.0
2022-08-29T04:42:25.255Z,12.1
2022-08-29T04:43:25.859Z,12.0
2022-08-29T04:44:26.477Z,12.0
2022-08-29T04:45:27.076Z,11.9
2022-08-29T04:46:27.714Z,11.9
2022-08-29T04:47:28.277Z,11.9
2022-08-29T04:48:28.880Z,11.8
2022-08-29T04:49:29.479Z,11.8
2022-08-29T04:50:30.080Z,11.8
2022-08-29T04:51:30.680Z,11.8
2022-08-29T04:52:31.283Z,11.7
2022-08-29T04:53:31.882Z,11.8
2022-08-29T04:54:32.483Z,11.6
2022-08-29T04:55:33.459Z,11.6
2022-08-29T04:56:34.608Z,11.8
2022-08-29T04:57:35.348Z,11.8
2022-08-29T04:58:36.091Z,11.8
2022-08-29T04:59:36.689Z,11.9
2022-08-29T05:00:37.289Z,12.0
2022-08-29T05:01:37.950Z,12.0
2022-08-29T05:02:38.563Z,12.0
2022-08-29T05:03:39.106Z,12.1
2022-08-29T05:04:39.708Z,12.2
2022-08-29T05:05:40.308Z,12.2
2022-08-29T05:06:40.911Z,12.2
2022-08-29T05:07:41.509Z,12.2
2022-08-29T05:08:42.110Z,12.2
2022-08-29T05:09:42.710Z,12.3
2022-08-29T05:10:43.311Z,12.3
2022-08-29T05:11:43.910Z,12.3
2022-08-29T05:12:44.512Z,12.3
2022-08-29T05:13:45.110Z,12.3
2022-08-29T05:14:45.711Z,12.2
2022-08-29T05:15:46.318Z,12.2
2022-08-29T05:16:46.928Z,12.3
2022-08-29T05:17:47.531Z,12.1
2022-08-29T05:18:48.129Z,12.2
2022-08-29T05:19:48.728Z,12.1
2022-08-29T05:20:49.330Z,12.1
2022-08-29T05:21:49.928Z,12.2
2022-08-29T05:22:50.530Z,12.1
2022-08-29T05:23:51.130Z,12.2
2022-08-29T05:24:51.731Z,12.2
2022-08-29T05:25:52.330Z,12.2
2022-08-29T05:26:52.932Z,12.2
2022-08-29T05:27:53.531Z,12.2
2022-08-29T05:28:54.889Z,12.3
2022-08-29T05:29:55.492Z,12.3
2022-08-29T05:30:56.152Z,12.3
2022-08-29T05:31:56.710Z,12.3
2022-08-29T05:32:57.311Z,12.4
2022-08-29T05:33:57.913Z,12.4
2022-08-29T05:34:58.513Z,12.4
2022-08-29T05:35:59.113Z,12.5
2022-08-29T05:36:59.715Z,12.4
2022-08-29T05:38:00.335Z,12.5
2022-08-29T05:39:00.939Z,12.5
2022-08-29T05:40:01.561Z,12.5
2022-08-29T05:41:02.148Z,12.5
2022-08-29T05:42:02.750Z,12.4
2022-08-29T05:43:03.348Z,12.4
2022-08-29T05:44:03.948Z,12.5
2022-08-29T05:45:04.550Z,12.5
2022-08-29T05:46:05.210Z,12.4
2022-08-29T05:47:05.767Z,12.5
2022-08-29T05:48:06.368Z,12.5
2022-08-29T05:49:06.970Z,12.6
2022-08-29T05:50:07.569Z,12.7
2022-08-29T05:51:08.173Z,12.8
2022-08-29T05:52:08.772Z,12.9
2022-08-29T05:53:09.379Z,13.0
2022-08-29T05:54:10.006Z,13.1
2022-08-29T05:55:10.602Z,13.3
2022-08-29T05:56:11.204Z,13.4
2022-08-29T05:57:16.665Z,13.4
2022-08-29T05:58:13.625Z,13.4
2022-08-29T05:59:14.016Z,13.4
2022-08-29T06:00:14.618Z,13.3
2022-08-29T06:01:15.220Z,13.3
2022-08-29T06:02:15.921Z,13.3
2022-08-29T06:03:16.685Z,13.2
2022-08-29T06:04:17.154Z,13.2
2022-08-29T06:05:17.753Z,13.3
2022-08-29T06:06:18.352Z,13.3
2022-08-29T06:07:19.789Z,13.2
2022-08-29T06:08:20.387Z,13.3
2022-08-29T06:09:20.988Z,13.3
2022-08-29T06:10:21.587Z,13.4
2022-08-29T06:11:22.189Z,13.4
2022-08-29T06:12:24.271Z,13.5
2022-08-29T06:13:23.405Z,13.4
2022-08-29T06:14:24.008Z,13.5
2022-08-29T06:15:24.606Z,13.5
2022-08-29T06:16:25.207Z,13.5
2022-08-29T06:17:25.808Z,13.4
2022-08-29T06:18:31.565Z,13.5
2022-08-29T06:19:27.046Z,13.5
2022-08-29T06:20:27.667Z,13.6
2022-08-29T06:21:28.272Z,13.5
2022-08-29T06:22:28.871Z,13.4
2022-08-29T06:23:29.491Z,13.4
2022-08-29T06:24:31.017Z,13.4
2022-08-29T06:25:39.526Z,13.4
2022-08-29T06:26:33.216Z,13.4
2022-08-29T06:27:33.833Z,13.4
2022-08-29T06:28:34.432Z,13.4
2022-08-29T06:29:43.178Z,13.5
2022-08-29T06:30:36.679Z,13.5
2022-08-29T06:31:37.271Z,13.5
2022-08-29T06:32:37.869Z,13.6
2022-08-29T06:33:38.471Z,13.6
2022-08-29T06:34:39.092Z,13.6
2022-08-29T06:35:39.695Z,13.6
2022-08-29T06:36:40.295Z,13.6
2022-08-29T06:37:40.917Z,13.6
2022-08-29T06:38:41.520Z,13.7
2022-08-29T06:39:42.121Z,13.8
2022-08-29T06:40:42.792Z,13.8
2022-08-29T06:41:43.340Z,13.9
2022-08-29T06:42:43.940Z,13.9
2022-08-29T06:43:44.546Z,14.0
2022-08-29T06:44:45.143Z,14.1
2022-08-29T06:45:45.750Z,14.1
2022-08-29T06:46:46.346Z,14.1
2022-08-29T06:47:46.947Z,14.2
2022-08-29T06:48:47.546Z,14.3
2022-08-29T06:49:48.149Z,14.4
2022-08-29T06:50:48.752Z,14.5
2022-08-29T06:51:49.354Z,14.7
2022-08-29T06:52:49.974Z,14.7
2022-08-29T06:53:50.668Z,14.7
2022-08-29T06:54:51.269Z,14.9
2022-08-29T06:55:52.865Z,15.1
2022-08-29T06:56:53.538Z,15.3
2022-08-29T06:57:54.140Z,15.4
2022-08-29T06:58:54.759Z,15.4
2022-08-29T06:59:55.362Z,15.5
2022-08-29T07:00:55.993Z,15.6
2022-08-29T07:01:56.643Z,15.9
2022-08-29T07:02:57.286Z,15.8
2022-08-29T07:03:57.871Z,15.7
2022-08-29T07:04:58.490Z,15.7
2022-08-29T07:05:59.092Z,15.8
2022-08-29T07:06:59.691Z,15.8
2022-08-29T07:08:00.290Z,15.6
2022-08-29T07:09:00.890Z,15.6
2022-08-29T07:10:01.493Z,15.7
2022-08-29T07:11:02.094Z,15.7
2022-08-29T07:12:02.698Z,15.9
2022-08-29T07:13:03.321Z,16.5
2022-08-29T07:14:03.923Z,16.8
2022-08-29T07:15:04.526Z,17.0
2022-08-29T07:16:05.165Z,16.8
2022-08-29T07:17:05.726Z,16.7
2022-08-29T07:18:06.328Z,16.7
2022-08-29T07:19:06.929Z,17.3
2022-08-29T07:20:07.534Z,18.0
2022-08-29T07:21:08.134Z,18.5
2022-08-29T07:22:08.737Z,18.7
2022-08-29T07:23:09.383Z,18.3
2022-08-29T07:24:10.935Z,18.3
2022-08-29T07:25:11.537Z,18.1
2022-08-29T07:26:12.160Z,18.2
2022-08-29T07:27:12.762Z,18.1
2022-08-29T07:28:13.389Z,17.8
2022-08-29T07:29:14.964Z,17.7
2022-08-29T07:30:15.583Z,17.6
2022-08-29T07:31:16.894Z,17.6
2022-08-29T07:32:17.484Z,17.7
2022-08-29T07:33:18.088Z,17.9
2022-08-29T07:34:20.534Z,17.9
2022-08-29T07:35:30.019Z,18.1
2022-08-29T07:36:21.878Z,18.2
2022-08-29T07:37:22.480Z,18.0
2022-08-29T07:38:23.105Z,17.8
2022-08-29T07:39:23.706Z,17.7
2022-08-29T07:40:24.377Z,17.7
2022-08-29T07:41:24.968Z,17.6
2022-08-29T07:42:25.563Z,17.7
2022-08-29T07:43:28.005Z,17.8
2022-08-29T07:44:27.780Z,17.7
2022-08-29T07:45:29.385Z,17.7
2022-08-29T07:46:30.035Z,17.6
2022-08-29T07:47:30.595Z,17.6
2022-08-29T07:48:31.198Z,17.6
2022-08-29T07:49:40.574Z,17.6
2022-08-29T07:50:33.397Z,17.7
2022-08-29T07:51:34.020Z,17.8
2022-08-29T07:52:34.622Z,17.9
2022-08-29T07:53:35.225Z,18.1
2022-08-29T07:54:35.832Z,18.1
2022-08-29T07:55:36.434Z,18.0
2022-08-29T07:56:38.089Z,18.1
2022-08-29T07:57:39.923Z,18.3
2022-08-29T07:58:40.228Z,18.4
2022-08-29T07:59:41.823Z,18.5
2022-08-29T08:00:42.426Z,18.6
2022-08-29T08:01:43.074Z,18.9
2022-08-29T08:02:43.667Z,19.1
2022-08-29T08:03:44.245Z,19.5
2022-08-29T08:04:45.732Z,19.7
2022-08-29T08:05:46.327Z,19.9
2022-08-29T08:06:47.294Z,19.8
2022-08-29T08:07:47.898Z,19.8
2022-08-29T08:08:48.500Z,19.8
2022-08-29T08:09:49.101Z,19.9
2022-08-29T08:10:52.155Z,19.9
2022-08-29T08:11:51.300Z,20.0
2022-08-29T08:12:51.901Z,20.1
2022-08-29T08:13:52.510Z,19.9
2022-08-29T08:14:53.106Z,19.7
2022-08-29T08:15:53.729Z,19.5
2022-08-29T08:16:54.385Z,19.5
2022-08-29T08:17:54.947Z,19.6
2022-08-29T08:18:55.548Z,19.6
2022-08-29T08:19:56.151Z,19.8
2022-08-29T08:20:56.755Z,20.0
2022-08-29T08:21:57.356Z,20.0
2022-08-29T08:22:57.960Z,20.1
2022-08-29T08:23:58.564Z,20.0
2022-08-29T08:24:59.167Z,20.3
2022-08-29T08:25:59.774Z,20.4
2022-08-29T08:27:00.371Z,20.3
2022-08-29T08:28:00.974Z,20.3
2022-08-29T08:29:01.575Z,20.3
2022-08-29T08:30:02.202Z,20.4
2022-08-29T08:31:06.132Z,20.3
2022-08-29T08:32:04.378Z,20.3
2022-08-29T08:33:04.982Z,20.3
2022-08-29T08:34:05.862Z,20.5
2022-08-29T08:35:06.425Z,20.6
2022-08-29T08:36:07.035Z,20.5
2022-08-29T08:37:07.650Z,20.5
2022-08-29T08:38:08.308Z,20.6
2022-08-29T08:39:08.862Z,20.8
2022-08-29T08:40:09.509Z,21.2
2022-08-29T08:41:10.069Z,20.9
2022-08-29T08:42:10.673Z,20.9
2022-08-29T08:43:11.336Z,20.8
2022-08-29T08:44:11.897Z,20.9
2022-08-29T08:45:12.520Z,20.7
2022-08-29T08:46:13.165Z,20.7
2022-08-29T08:47:13.742Z,20.3
2022-08-29T08:48:14.362Z,20.3
2022-08-29T08:49:14.983Z,20.4
2022-08-29T08:50:15.585Z,20.3
2022-08-29T08:51:16.187Z,19.7
2022-08-29T08:52:16.792Z,19.3
2022-08-29T08:53:17.393Z,19.4
2022-08-29T08:54:18.000Z,19.5
2022-08-29T08:55:18.621Z,19.6
2022-08-29T08:56:19.222Z,19.5
2022-08-29T08:57:19.822Z,19.5
2022-08-29T08:58:27.284Z,19.4
2022-08-29T08:59:22.018Z,19.5
2022-08-29T09:00:22.622Z,19.6
2022-08-29T09:01:23.272Z,19.8
2022-08-29T09:02:23.887Z,19.4
2022-08-29T09:03:24.450Z,19.3
2022-08-29T09:04:25.070Z,19.3
2022-08-29T09:05:26.667Z,19.4
2022-08-29T09:06:27.268Z,19.5
2022-08-29T09:07:27.871Z,19.6
2022-08-29T09:08:28.473Z,19.7
2022-08-29T09:09:29.075Z,19.7
2022-08-29T09:10:29.679Z,19.6
2022-08-29T09:11:30.281Z,19.6
2022-08-29T09:12:30.906Z,19.9
2022-08-29T09:13:31.509Z,20.2
2022-08-29T09:14:32.112Z,19.9
2022-08-29T09:15:33.075Z,20.0
2022-08-29T09:16:33.691Z,20.1
2022-08-29T09:17:36.472Z,20.1
2022-08-29T09:18:35.874Z,20.2
2022-08-29T09:19:37.015Z,20.3
2022-08-29T09:20:37.618Z,20.3
2022-08-29T09:21:42.071Z,20.5
2022-08-29T09:22:39.837Z,20.6
2022-08-29T09:23:40.440Z,20.7
2022-08-29T09:24:41.042Z,20.7
2022-08-29T09:25:41.646Z,20.8
2022-08-29T09:26:42.250Z,20.6
2022-08-29T09:27:42.855Z,20.5
2022-08-29T09:28:43.457Z,20.3
2022-08-29T09:29:44.082Z,20.4
2022-08-29T09:30:44.684Z,20.5
2022-08-29T09:31:45.315Z,20.4
2022-08-29T09:32:45.891Z,20.4
2022-08-29T09:33:46.496Z,20.3
2022-08-29T09:35:10.537Z,20.4
2022-08-29T09:35:48.721Z,20.5
2022-08-29T09:36:49.323Z,20.5
2022-08-29T09:37:49.946Z,20.7
2022-08-29T09:38:50.548Z,20.6
2022-08-29T09:39:51.959Z,20.3
2022-08-29T09:40:52.554Z,20.2
2022-08-29T09:41:53.152Z,20.4
2022-08-29T09:42:53.756Z,20.3
2022-08-29T09:43:54.356Z,20.2
2022-08-29T09:44:54.959Z,20.2
2022-08-29T09:45:55.651Z,20.2
2022-08-29T09:46:56.203Z,20.2
2022-08-29T09:47:56.805Z,20.3
2022-08-29T09:48:57.429Z,20.7
2022-08-29T09:49:58.031Z,20.9
2022-08-29T09:50:58.636Z,21.1
2022-08-29T09:51:59.260Z,21.3
2022-08-29T09:52:59.903Z,21.2
2022-08-29T09:54:00.555Z,21.4
2022-08-29T09:55:01.156Z,21.4
2022-08-29T09:56:01.759Z,21.3
2022-08-29T09:57:02.381Z,21.0
2022-08-29T09:58:02.964Z,21.0
2022-08-29T09:59:03.570Z,20.9
2022-08-29T10:00:04.171Z,21.0
2022-08-29T10:01:05.493Z,21.0
2022-08-29T10:02:06.474Z,21.2
2022-08-29T10:03:07.049Z,21.3
2022-08-29T10:04:07.985Z,21.0
2022-08-29T10:05:11.991Z,21.1
2022-08-29T10:06:09.862Z,21.3
2022-08-29T10:07:10.465Z,21.5
2022-08-29T10:08:11.066Z,21.5
2022-08-29T10:09:11.670Z,21.6
2022-08-29T10:10:12.293Z,21.6
2022-08-29T10:11:12.898Z,21.6
2022-08-29T10:12:13.499Z,21.7
2022-08-29T10:13:14.181Z,21.1
2022-08-29T10:14:14.772Z,20.7
2022-08-29T10:15:28.134Z,20.6
2022-08-29T10:16:17.014Z,20.7
2022-08-29T10:17:17.567Z,20.6
2022-08-29T10:18:18.169Z,20.8
2022-08-29T10:19:18.772Z,21.0
2022-08-29T10:20:19.375Z,21.3
2022-08-29T10:21:19.978Z,21.4
2022-08-29T10:23:22.205Z,21.4
2022-08-29T10:24:22.804Z,21.5
2022-08-29T10:25:23.458Z,21.6
2022-08-29T10:26:24.082Z,21.7
2022-08-29T10:27:24.688Z,21.9
2022-08-29T10:28:25.288Z,22.2
2022-08-29T10:29:29.592Z,22.3
2022-08-29T10:30:26.507Z,22.4
2022-08-29T10:31:27.259Z,22.4
2022-08-29T10:32:27.842Z,21.9
2022-08-29T10:33:28.446Z,21.7
2022-08-29T10:34:29.048Z,22.0
2022-08-29T10:35:29.653Z,22.0
2022-08-29T10:36:30.261Z,22.1
2022-08-29T10:37:30.858Z,22.3
2022-08-29T10:38:31.461Z,22.5
2022-08-29T10:39:32.063Z,22.5
2022-08-29T10:40:32.735Z,22.3
2022-08-29T10:41:33.287Z,22.2
2022-08-29T10:42:33.889Z,21.9
2022-08-29T10:43:34.492Z,21.6
2022-08-29T10:44:35.094Z,21.4
2022-08-29T10:45:35.726Z,21.1
2022-08-29T10:46:36.313Z,21.0
2022-08-29T10:47:36.916Z,20.9
2022-08-29T10:48:37.519Z,20.8
2022-08-29T10:49:40.768Z,20.9
2022-08-29T10:50:47.002Z,20.7
2022-08-29T10:51:41.308Z,20.7
2022-08-29T10:52:41.914Z,20.5
2022-08-29T10:53:42.513Z,20.4
2022-08-29T10:54:43.112Z,20.4
2022-08-29T10:55:43.715Z,20.4
2022-08-29T10:56:44.314Z,20.3
2022-08-29T10:57:44.918Z,20.2
2022-08-29T10:58:45.523Z,20.1
2022-08-29T10:59:46.126Z,20.0
2022-08-29T11:00:46.771Z,20.1
2022-08-29T11:01:47.374Z,20.1
2022-08-29T11:02:47.974Z,20.1
2022-08-29T11:03:49.632Z,20.2
2022-08-29T11:04:50.177Z,20.1
2022-08-29T11:05:50.779Z,20.2
2022-08-29T11:06:51.381Z,20.1
2022-08-29T11:07:51.980Z,20.0
2022-08-29T11:08:52.582Z,20.0
2022-08-29T11:09:53.181Z,20.0
2022-08-29T11:10:53.781Z,20.2
2022-08-29T11:11:54.383Z,20.3
2022-08-29T11:12:54.983Z,20.3
2022-08-29T11:13:55.585Z,20.4
2022-08-29T11:14:56.183Z,20.4
2022-08-29T11:15:56.846Z,20.5
2022-08-29T11:16:57.404Z,20.3
2022-08-29T11:17:59.002Z,20.4
2022-08-29T11:18:59.625Z,20.4
2022-08-29T11:20:00.232Z,20.4
2022-08-29T11:21:00.830Z,20.4
2022-08-29T11:22:01.435Z,20.5
2022-08-29T11:23:02.036Z,20.5
2022-08-29T11:24:02.640Z,20.7
2022-08-29T11:25:03.242Z,20.9
2022-08-29T11:26:03.923Z,20.7
2022-08-29T11:27:04.463Z,20.7
2022-08-29T11:28:05.067Z,20.7
2022-08-29T11:29:05.671Z,21.0
2022-08-29T11:30:06.292Z,21.2
2022-08-29T11:31:06.913Z,21.5
2022-08-29T11:32:07.499Z,21.7
2022-08-29T11:33:08.159Z,22.1
2022-08-29T11:34:08.712Z,22.5
2022-08-29T11:35:09.317Z,22.8
2022-08-29T11:36:09.918Z,22.9
2022-08-29T11:37:10.521Z,23.2
2022-08-29T11:38:11.141Z,23.3
2022-08-29T11:39:11.746Z,23.3
2022-08-29T11:40:12.408Z,23.3
2022-08-29T11:41:29.139Z,22.9
2022-08-29T11:42:14.657Z,23.0
2022-08-29T11:43:15.450Z,23.3
2022-08-29T11:44:16.088Z,23.6
2022-08-29T11:45:16.691Z,23.6
2022-08-29T11:46:17.338Z,23.4
2022-08-29T11:47:17.980Z,23.5
2022-08-29T11:48:19.317Z,23.4
2022-08-29T11:49:20.010Z,23.4
2022-08-29T11:50:20.537Z,23.7
2022-08-29T11:51:21.142Z,24.0
2022-08-29T11:52:22.524Z,23.8
2022-08-29T11:53:22.380Z,24.0
2022-08-29T11:54:24.975Z,24.1
2022-08-29T11:55:24.579Z,24.4
2022-08-29T11:56:27.927Z,24.8
2022-08-29T11:57:26.781Z,24.9
2022-08-29T11:58:27.385Z,24.6
2022-08-29T11:59:28.007Z,24.0
2022-08-29T12:00:28.636Z,23.9
2022-08-29T12:01:29.235Z,24.1
2022-08-29T12:02:29.838Z,23.9
2022-08-29T12:03:30.708Z,23.7
2022-08-29T12:04:31.487Z,23.6
2022-08-29T12:05:32.030Z,23.4
2022-08-29T12:06:32.637Z,22.9
2022-08-29T12:07:33.236Z,22.6
2022-08-29T12:08:37.249Z,22.3
2022-08-29T12:09:35.438Z,22.2
2022-08-29T12:10:36.041Z,22.0
2022-08-29T12:11:36.644Z,22.1
2022-08-29T12:12:37.245Z,22.2
2022-08-29T12:13:37.849Z,22.4
2022-08-29T12:14:38.510Z,22.7
2022-08-29T12:15:39.051Z,22.8
2022-08-29T12:16:39.710Z,22.9
2022-08-29T12:18:01.044Z,22.9
2022-08-29T12:18:40.891Z,22.8
2022-08-29T12:19:41.494Z,22.4
2022-08-29T12:20:42.099Z,22.2
2022-08-29T12:21:42.737Z,22.3
2022-08-29T12:23:44.877Z,22.3
2022-08-29T12:24:57.380Z,21.9
2022-08-29T12:25:55.200Z,21.7
2022-08-29T12:26:48.671Z,22.0
2022-08-29T12:27:49.275Z,22.2
2022-08-29T12:28:49.876Z,22.4
2022-08-29T12:29:50.482Z,22.4
2022-08-29T12:30:51.084Z,22.3
2022-08-29T12:32:18.098Z,22.3
2022-08-29T12:32:53.727Z,22.3
2022-08-29T12:33:54.416Z,22.2
2022-08-29T12:34:55.034Z,22.2
2022-08-29T12:35:55.652Z,22.1
2022-08-29T12:36:56.255Z,22.0
2022-08-29T12:37:56.861Z,22.1
2022-08-29T12:38:57.482Z,22.2
2022-08-29T12:39:58.166Z,22.5
2022-08-29T12:40:58.745Z,22.5
2022-08-29T12:41:59.349Z,22.6
2022-08-29T12:42:59.959Z,22.6
2022-08-29T12:44:00.564Z,22.9
2022-08-29T12:45:02.170Z,23.2
2022-08-29T12:46:02.762Z,23.1
2022-08-29T12:47:03.416Z,23.3
2022-08-29T12:48:03.965Z,23.3
2022-08-29T12:49:04.567Z,23.5
2022-08-29T12:50:05.172Z,23.6
2022-08-29T12:51:06.768Z,23.8
2022-08-29T12:52:07.374Z,23.9
2022-08-29T12:53:07.994Z,24.1
2022-08-29T12:54:08.600Z,24.1
2022-08-29T12:55:09.221Z,24.2
2022-08-29T12:56:10.820Z,24.2
2022-08-29T12:57:11.421Z,24.2
2022-08-29T12:58:12.088Z,24.3
2022-08-29T12:59:12.646Z,24.3
2022-08-29T13:00:13.249Z,24.3
2022-08-29T13:01:13.907Z,24.0
2022-08-29T13:02:14.525Z,23.7
2022-08-29T13:03:15.818Z,23.7
2022-08-29T13:04:16.488Z,23.4
2022-08-29T13:05:17.110Z,23.3
2022-08-29T13:06:17.713Z,23.0
2022-08-29T13:07:18.401Z,23.2
2022-08-29T13:08:19.410Z,23.4
2022-08-29T13:09:20.190Z,23.1
2022-08-29T13:10:20.813Z,23.1
2022-08-29T13:11:21.424Z,23.3
2022-08-29T13:12:22.018Z,23.4
2022-08-29T13:13:22.619Z,23.6
2022-08-29T13:14:23.222Z,23.8
2022-08-29T13:15:23.824Z,24.0
2022-08-29T13:16:24.507Z,23.9
2022-08-29T13:17:25.067Z,23.6
2022-08-29T13:18:25.673Z,23.5
2022-08-29T13:19:26.278Z,23.6
2022-08-29T13:20:26.881Z,23.9
2022-08-29T13:21:27.486Z,24.1
2022-08-29T13:22:31.764Z,24.2
2022-08-29T13:23:29.685Z,24.2
2022-08-29T13:24:30.307Z,23.8
2022-08-29T13:25:31.902Z,23.6
2022-08-29T13:26:32.508Z,23.6
2022-08-29T13:27:33.108Z,23.6
2022-08-29T13:28:33.713Z,23.7
2022-08-29T13:30:35.793Z,23.9